createdAt,value
2022-08-17T00:01:31.476Z,4.13
2022-08-17T00:04:12.406Z,4.15
2022-08-17T00:06:43.762Z,3.67
2022-08-17T00:09:18.363Z,4.18
2022-08-17T00:12:41.041Z,4.43
2022-08-17T00:14:36.176Z,4.20
2022-08-17T00:17:06.543Z,4.00
2022-08-17T00:19:34.105Z,3.95
2022-08-17T00:22:31.530Z,4.00
2022-08-17T00:24:50.712Z,4.10
2022-08-17T00:27:18.562Z,3.72
2022-08-17T00:29:46.058Z,4.03
2022-08-17T00:33:11.876Z,3.70
2022-08-17T00:35:05.265Z,4.20
2022-08-17T00:37:32.014Z,4.00
2022-08-17T00:39:58.794Z,4.25
2022-08-17T00:42:30.817Z,3.95
2022-08-17T00:44:58.375Z,4.30
2022-08-17T00:47:25.724Z,3.80
2022-08-17T00:49:53.068Z,4.20
2022-08-17T00:52:24.044Z,3.95
2022-08-17T00:54:55.421Z,4.50
2022-08-17T00:57:28.462Z,4.05
2022-08-17T01:00:02.953Z,4.30
2022-08-17T01:02:42.356Z,4.50
2022-08-17T01:05:15.178Z,4.53
2022-08-17T01:07:43.415Z,4.50
2022-08-17T01:11:00.252Z,4.28
2022-08-17T01:13:02.671Z,4.40
2022-08-17T01:15:31.871Z,4.03
2022-08-17T01:17:58.798Z,4.45
2022-08-17T01:20:25.668Z,4.22
2022-08-17T01:22:53.477Z,4.57
2022-08-17T01:25:21.447Z,4.53
2022-08-17T01:27:48.802Z,4.13
2022-08-17T01:30:57.791Z,4.25
2022-08-17T01:33:04.355Z,4.45
2022-08-17T01:35:31.690Z,4.57
2022-08-17T01:37:58.454Z,4.65
2022-08-17T01:40:43.712Z,4.63
2022-08-17T01:43:14.603Z,5.20
2022-08-17T01:45:45.351Z,4.68
2022-08-17T01:48:13.285Z,4.70
2022-08-17T01:50:43.756Z,4.72
2022-08-17T01:53:19.289Z,4.50
2022-08-17T01:55:48.522Z,4.20
2022-08-17T01:58:15.474Z,4.22
2022-08-17T02:00:59.492Z,4.70
2022-08-17T02:03:29.021Z,4.80
2022-08-17T02:05:56.418Z,4.80
2022-08-17T02:08:39.282Z,4.50
2022-08-17T02:11:15.763Z,4.47
2022-08-17T02:13:47.434Z,5.03
2022-08-17T02:16:22.167Z,5.35
2022-08-17T02:18:48.942Z,4.63
2022-08-17T02:21:15.802Z,4.80
2022-08-17T02:23:46.496Z,5.13
2022-08-17T02:26:24.223Z,5.03
2022-08-17T02:28:53.680Z,5.05
2022-08-17T02:31:21.410Z,4.72
2022-08-17T02:34:00.312Z,4.78
2022-08-17T02:36:32.321Z,4.28
2022-08-17T02:39:01.591Z,4.85
2022-08-17T02:41:28.415Z,4.82
2022-08-17T02:43:55.120Z,4.65
2022-08-17T02:46:22.595Z,4.90
2022-08-17T02:48:49.305Z,4.75
2022-08-17T02:51:16.896Z,4.90
2022-08-17T02:53:43.965Z,4.97
2022-08-17T02:56:10.671Z,5.00
2022-08-17T02:58:37.567Z,5.05
2022-08-17T03:01:06.491Z,4.82
2022-08-17T03:03:34.036Z,5.22
2022-08-17T03:06:01.219Z,4.93
2022-08-17T03:08:28.402Z,4.95
2022-08-17T03:10:55.674Z,5.10
2022-08-17T03:13:22.506Z,5.22
2022-08-17T03:15:49.958Z,4.78
2022-08-17T03:18:24.628Z,5.05
2022-08-17T03:21:00.406Z,5.30
2022-08-17T03:23:29.718Z,5.05
2022-08-17T03:25:58.645Z,5.70
2022-08-17T03:28:26.186Z,4.90
2022-08-17T03:30:52.916Z,5.28
2022-08-17T03:33:20.159Z,5.32
2022-08-17T03:35:47.150Z,5.28
2022-08-17T03:38:15.099Z,4.63
2022-08-17T03:40:56.624Z,5.57
2022-08-17T03:43:25.631Z,4.90
2022-08-17T03:46:28.837Z,4.90
2022-08-17T03:49:16.156Z,5.03
2022-08-17T03:52:01.594Z,4.85
2022-08-17T03:54:46.994Z,4.50
2022-08-17T03:57:13.873Z,4.82
2022-08-17T03:59:41.400Z,4.50
2022-08-17T04:02:13.127Z,4.80
2022-08-17T04:04:39.875Z,4.55
2022-08-17T04:07:07.473Z,3.92
2022-08-17T04:09:34.816Z,4.55
2022-08-17T04:12:02.545Z,5.20
2022-08-17T04:14:49.497Z,4.40
2022-08-17T04:17:28.544Z,4.30
2022-08-17T04:19:56.179Z,4.45
2022-08-17T04:22:32.314Z,5.13
2022-08-17T04:25:19.113Z,4.40
2022-08-17T04:27:46.044Z,4.22
2022-08-17T04:30:13.360Z,4.63
2022-08-17T04:33:03.747Z,4.75
2022-08-17T04:35:37.751Z,4.68
2022-08-17T04:38:06.137Z,4.20
2022-08-17T04:40:51.401Z,4.53
2022-08-17T04:43:20.499Z,4.35
2022-08-17T04:45:55.120Z,4.40
2022-08-17T04:48:34.725Z,4.32
2022-08-17T04:51:06.471Z,4.20
2022-08-17T04:53:33.244Z,4.45
2022-08-17T04:55:59.982Z,4.50
2022-08-17T04:58:26.840Z,4.68
2022-08-17T05:00:53.699Z,4.40
2022-08-17T05:03:20.484Z,5.20
2022-08-17T05:05:50.135Z,4.90
2022-08-17T05:10:45.157Z,4.80
2022-08-17T05:13:18.329Z,4.70
2022-08-17T05:15:47.908Z,4.75
2022-08-17T05:20:42.716Z,4.47
2022-08-17T05:23:13.115Z,4.60
2022-08-17T05:25:42.877Z,4.55
2022-08-17T05:28:15.444Z,4.00
2022-08-17T05:30:44.247Z,4.78
2022-08-17T05:33:18.388Z,4.43
2022-08-17T05:35:48.342Z,3.97
2022-08-17T05:38:17.399Z,4.47
2022-08-17T05:40:45.203Z,4.38
2022-08-17T05:43:11.966Z,4.30
2022-08-17T05:45:55.400Z,4.50
2022-08-17T05:48:35.623Z,4.13
2022-08-17T05:51:23.931Z,3.88
2022-08-17T05:53:59.891Z,4.38
2022-08-17T05:56:33.009Z,4.47
2022-08-17T05:59:18.814Z,3.97
2022-08-17T06:01:58.838Z,4.25
2022-08-17T06:04:46.826Z,4.30
2022-08-17T06:07:25.819Z,4.10
2022-08-17T06:10:11.727Z,4.18
2022-08-17T06:12:56.167Z,4.70
2022-08-17T06:15:31.404Z,3.78
2022-08-17T06:18:05.731Z,4.25
2022-08-17T06:20:47.828Z,4.10
2022-08-17T06:23:22.796Z,4.05
2022-08-17T06:25:55.325Z,4.18
2022-08-17T06:28:38.048Z,4.43
2022-08-17T06:31:20.127Z,4.10
2022-08-17T06:33:47.540Z,3.80
2022-08-17T06:36:19.799Z,3.55
2022-08-17T06:39:05.118Z,4.40
2022-08-17T06:41:43.871Z,4.15
2022-08-17T06:44:52.173Z,4.10
2022-08-17T06:47:28.908Z,4.13
2022-08-17T06:50:10.056Z,3.60
2022-08-17T06:52:50.243Z,3.90
2022-08-17T06:55:32.180Z,3.67
2022-08-17T06:58:15.867Z,3.60
2022-08-17T07:00:47.684Z,3.63
2022-08-17T07:03:29.582Z,3.90
2022-08-17T07:06:05.866Z,3.83
2022-08-17T07:09:14.175Z,3.42
2022-08-17T07:11:50.891Z,3.72
2022-08-17T07:14:42.341Z,3.38
2022-08-17T07:17:20.377Z,3.65
2022-08-17T07:19:49.992Z,3.70
2022-08-17T07:22:55.321Z,3.58
2022-08-17T07:25:21.572Z,3.55
2022-08-17T07:27:54.124Z,3.47
2022-08-17T07:30:45.686Z,3.30
2022-08-17T07:33:27.543Z,3.30
2022-08-17T07:35:57.476Z,3.88
2022-08-17T07:38:28.381Z,3.88
2022-08-17T07:40:57.718Z,3.60
2022-08-17T07:49:15.311Z,3.80
2022-08-17T07:51:47.851Z,3.60
2022-08-17T07:54:19.651Z,3.85
2022-08-17T07:56:50.634Z,3.55
2022-08-17T07:59:33.250Z,3.45
2022-08-17T08:02:22.713Z,3.33
2022-08-17T08:05:08.664Z,3.38
2022-08-17T08:07:40.099Z,3.40
2022-08-17T08:10:07.109Z,3.08
2022-08-17T08:12:43.982Z,3.30
2022-08-17T08:15:40.156Z,3.45
2022-08-17T08:18:38.782Z,3.85
2022-08-17T08:21:56.489Z,3.50
2022-08-17T08:24:30.701Z,3.58
2022-08-17T08:27:22.357Z,3.30
2022-08-17T08:30:16.300Z,3.75
2022-08-17T08:32:45.008Z,3.42
2022-08-17T08:35:22.712Z,3.67
2022-08-17T08:37:52.603Z,3.25
2022-08-17T08:40:34.672Z,3.80
2022-08-17T08:43:54.843Z,3.72
2022-08-17T08:46:35.488Z,3.50
2022-08-17T08:50:02.598Z,3.20
2022-08-17T08:52:53.739Z,3.50
2022-08-17T08:55:59.156Z,3.40
2022-08-17T08:58:50.747Z,3.10
2022-08-17T09:01:23.329Z,3.35
2022-08-17T09:04:23.310Z,3.25
2022-08-17T09:07:10.365Z,3.65
2022-08-17T09:10:01.845Z,3.70
2022-08-17T09:13:09.621Z,3.40
2022-08-17T09:15:48.273Z,3.70
2022-08-17T09:18:59.844Z,3.40
2022-08-17T09:21:13.817Z,3.05
2022-08-17T09:24:00.228Z,2.63
2022-08-17T09:26:48.524Z,2.88
2022-08-17T09:29:17.479Z,2.70
2022-08-17T09:31:55.081Z,2.88
2022-08-17T09:34:54.924Z,2.97
2022-08-17T09:37:35.440Z,2.80
2022-08-17T09:40:18.470Z,2.70
2022-08-17T09:42:52.364Z,2.38
2022-08-17T09:45:27.017Z,2.50
2022-08-17T09:48:12.174Z,2.75
2022-08-17T09:51:05.174Z,2.70
2022-08-17T09:53:36.916Z,2.60
2022-08-17T09:56:24.278Z,2.47
2022-08-17T09:59:16.910Z,2.58
2022-08-17T10:01:51.764Z,2.50
2022-08-17T10:04:47.810Z,2.65
2022-08-17T10:07:30.500Z,2.45
2022-08-17T10:10:25.034Z,2.40
2022-08-17T10:13:18.358Z,2.80
2022-08-17T10:16:22.690Z,2.47
2022-08-17T10:19:02.275Z,2.40
2022-08-17T10:21:50.158Z,2.70
2022-08-17T10:25:21.162Z,2.53
2022-08-17T10:27:49.123Z,2.47
2022-08-17T10:30:18.896Z,2.50
2022-08-17T10:32:59.205Z,2.55
2022-08-17T10:35:44.220Z,2.70
2022-08-17T10:38:39.976Z,2.50
2022-08-17T10:41:16.769Z,2.70
2022-08-17T10:44:39.095Z,2.58
2022-08-17T10:47:05.578Z,2.30
2022-08-17T10:49:38.005Z,2.40
2022-08-17T10:52:27.841Z,1.90
2022-08-17T10:54:58.053Z,2.30
2022-08-17T10:57:34.557Z,2.35
2022-08-17T11:00:08.249Z,2.58
2022-08-17T11:02:51.237Z,2.53
2022-08-17T11:05:30.472Z,2.20
2022-08-17T11:08:01.715Z,2.50
2022-08-17T11:10:58.112Z,2.20
2022-08-17T11:13:40.608Z,2.28
2022-08-17T11:16:26.036Z,2.30
2022-08-17T11:19:10.958Z,2.00
2022-08-17T11:21:43.478Z,2.50
2022-08-17T11:24:35.039Z,2.53
2022-08-17T11:27:13.982Z,2.22
2022-08-17T11:32:47.619Z,1.73
2022-08-17T11:35:21.663Z,2.45
2022-08-17T11:38:32.319Z,2.33
2022-08-17T11:41:14.242Z,1.92
2022-08-17T11:44:28.500Z,1.90
2022-08-17T11:47:13.582Z,2.45
2022-08-17T11:50:27.664Z,2.13
2022-08-17T11:52:55.229Z,2.00
2022-08-17T11:55:38.437Z,2.15
2022-08-17T11:58:29.146Z,1.80
2022-08-17T12:01:08.609Z,1.90
2022-08-17T12:03:35.361Z,2.47
2022-08-17T12:06:17.098Z,1.73
2022-08-17T12:08:51.958Z,2.53
2022-08-17T12:12:10.988Z,2.10
2022-08-17T12:15:09.509Z,1.90
2022-08-17T12:17:41.070Z,2.00
2022-08-17T12:20:23.166Z,2.08
2022-08-17T12:22:57.666Z,1.70
2022-08-17T12:25:33.719Z,2.60
2022-08-17T12:28:06.339Z,1.80
2022-08-17T12:30:35.472Z,2.05
2022-08-17T12:33:02.539Z,1.90
2022-08-17T12:35:36.445Z,2.25
2022-08-17T12:38:07.433Z,1.92
2022-08-17T12:40:58.021Z,1.73
2022-08-17T12:43:27.533Z,1.63
2022-08-17T12:45:57.946Z,1.95
2022-08-17T12:48:27.250Z,2.20
2022-08-17T12:51:01.253Z,1.88
2022-08-17T12:53:30.640Z,2.00
2022-08-17T12:56:02.633Z,1.77
2022-08-17T12:58:33.205Z,1.80
2022-08-17T13:01:09.249Z,2.05
2022-08-17T13:03:40.159Z,1.73
2022-08-17T13:06:14.481Z,1.80
2022-08-17T13:08:44.679Z,2.10
2022-08-17T13:11:14.614Z,1.73
2022-08-17T13:13:44.643Z,1.80
2022-08-17T13:16:14.473Z,2.03
2022-08-17T13:19:14.926Z,1.65
2022-08-17T13:21:54.280Z,1.67
2022-08-17T13:24:25.075Z,1.98
2022-08-17T13:27:13.331Z,1.80
2022-08-17T13:29:51.363Z,2.10
2022-08-17T13:32:30.970Z,2.08
2022-08-17T13:35:15.011Z,1.83
2022-08-17T13:37:57.759Z,2.13
2022-08-17T13:40:53.158Z,2.17
2022-08-17T13:43:46.435Z,2.00
2022-08-17T13:46:27.033Z,1.85
2022-08-17T13:48:58.446Z,2.25
2022-08-17T13:51:29.131Z,1.90
2022-08-17T13:53:59.328Z,2.10
2022-08-17T13:56:46.779Z,2.05
2022-08-17T13:59:55.052Z,1.88
2022-08-17T14:02:28.276Z,1.95
2022-08-17T14:04:56.489Z,1.90
2022-08-17T14:07:28.229Z,1.85
2022-08-17T14:10:02.736Z,1.88
2022-08-17T14:12:33.155Z,1.85
2022-08-17T14:15:01.145Z,1.88
2022-08-17T14:17:36.322Z,1.70
2022-08-17T14:20:07.097Z,2.03
2022-08-17T14:22:37.223Z,1.85
2022-08-17T14:25:05.185Z,2.05
2022-08-17T14:27:51.814Z,2.10
2022-08-17T14:30:22.294Z,2.00
2022-08-17T14:35:16.594Z,2.00
2022-08-17T14:37:45.718Z,1.90
2022-08-17T14:40:13.974Z,1.92
2022-08-17T14:42:43.109Z,1.80
2022-08-17T14:45:27.123Z,1.90
2022-08-17T14:48:04.569Z,2.10
2022-08-17T14:50:32.123Z,1.85
2022-08-17T14:53:04.438Z,2.17
2022-08-17T14:55:31.205Z,2.08
2022-08-17T14:57:58.252Z,2.03
2022-08-17T15:00:25.442Z,1.98
2022-08-17T15:02:55.827Z,2.08
2022-08-17T15:05:26.151Z,2.03
2022-08-17T15:07:53.621Z,1.90
2022-08-17T15:10:20.687Z,1.90
2022-08-17T15:12:48.471Z,1.85
2022-08-17T15:15:17.493Z,2.10
2022-08-17T15:17:45.939Z,1.90
2022-08-17T15:20:19.542Z,1.70
2022-08-17T15:22:54.991Z,2.20
2022-08-17T15:25:22.440Z,1.98
2022-08-17T15:27:49.523Z,2.15
2022-08-17T15:30:17.017Z,2.35
2022-08-17T15:32:50.633Z,2.10
2022-08-17T15:35:26.882Z,1.98
2022-08-17T15:37:56.724Z,1.92
2022-08-17T15:40:23.529Z,1.83
2022-08-17T15:42:51.078Z,1.92
2022-08-17T15:45:22.899Z,2.00
2022-08-17T15:47:49.753Z,1.85
2022-08-17T15:50:16.604Z,1.95
2022-08-17T15:52:44.968Z,2.08
2022-08-17T15:55:15.039Z,2.67
2022-08-17T15:57:41.906Z,2.88
2022-08-17T16:00:09.749Z,1.92
2022-08-17T16:03:45.507Z,2.00
2022-08-17T16:05:28.700Z,2.20
2022-08-17T16:07:59.696Z,2.00
2022-08-17T16:10:35.330Z,2.00
2022-08-17T16:13:03.574Z,2.20
2022-08-17T16:15:31.684Z,2.22
2022-08-17T16:17:58.768Z,2.55
2022-08-17T16:20:25.751Z,1.90
2022-08-17T16:22:52.778Z,2.00
2022-08-17T16:25:49.694Z,2.47
2022-08-17T16:28:16.125Z,2.03
2022-08-17T16:30:43.600Z,2.03
2022-08-17T16:33:11.691Z,2.10
2022-08-17T16:35:38.746Z,2.13
2022-08-17T16:38:05.463Z,2.17
2022-08-17T16:40:35.850Z,2.10
2022-08-17T16:45:36.710Z,2.13
2022-08-17T16:48:03.997Z,2.10
2022-08-17T16:50:31.987Z,2.35
2022-08-17T16:53:10.685Z,2.17
2022-08-17T16:58:06.288Z,2.30
2022-08-17T17:00:33.935Z,2.42
2022-08-17T17:03:19.517Z,2.70
2022-08-17T17:06:07.286Z,2.42
2022-08-17T17:08:48.927Z,2.22
2022-08-17T17:11:23.232Z,2.00
2022-08-17T17:13:57.862Z,2.28
2022-08-17T17:16:30.794Z,2.40
2022-08-17T17:19:35.096Z,2.22
2022-08-17T17:22:16.294Z,2.47
2022-08-17T17:25:01.830Z,2.13
2022-08-17T17:28:01.274Z,1.90
2022-08-17T17:30:47.013Z,1.95
2022-08-17T17:33:25.576Z,1.98
2022-08-17T17:36:00.164Z,1.80
2022-08-17T17:38:33.170Z,2.00
2022-08-17T17:41:04.593Z,2.22
2022-08-17T17:43:40.122Z,2.28
2022-08-17T17:46:27.815Z,2.10
2022-08-17T17:48:58.537Z,2.27
2022-08-17T17:52:08.110Z,2.08
2022-08-17T17:54:50.605Z,2.20
2022-08-17T17:57:32.774Z,2.22
2022-08-17T18:00:23.645Z,2.08
2022-08-17T18:03:17.795Z,2.22
2022-08-17T18:06:22.047Z,2.28
2022-08-17T18:09:12.190Z,2.65
2022-08-17T18:11:59.083Z,2.25
2022-08-17T18:14:37.144Z,2.50
2022-08-17T18:17:03.963Z,2.72
2022-08-17T18:19:31.615Z,2.60
2022-08-17T18:22:14.208Z,2.38
2022-08-17T18:24:47.845Z,3.35
2022-08-17T18:27:49.458Z,2.42
2022-08-17T18:30:20.037Z,3.10
2022-08-17T18:32:46.933Z,2.80
2022-08-17T18:35:16.374Z,3.03
2022-08-17T18:37:43.190Z,2.28
2022-08-17T18:40:23.384Z,2.53
2022-08-17T18:43:43.929Z,3.67
2022-08-17T18:46:35.156Z,3.00
2022-08-17T18:49:07.756Z,3.05
2022-08-17T18:51:43.266Z,3.80
2022-08-17T18:54:20.107Z,2.60
2022-08-17T18:56:58.851Z,2.60
2022-08-17T18:59:40.922Z,3.10
2022-08-17T19:02:22.135Z,3.00
2022-08-17T19:05:41.363Z,2.70
2022-08-17T19:08:34.178Z,3.10
2022-08-17T19:11:09.899Z,2.58
2022-08-17T19:13:54.745Z,2.70
2022-08-17T19:16:31.202Z,2.70
2022-08-17T19:19:23.374Z,2.92
2022-08-17T19:22:10.381Z,2.25
2022-08-17T19:24:47.700Z,2.63
2022-08-17T19:27:46.392Z,2.20
2022-08-17T19:30:16.441Z,2.70
2022-08-17T19:32:43.379Z,2.40
2022-08-17T19:35:17.187Z,2.20
2022-08-17T19:37:57.205Z,2.00
2022-08-17T19:40:53.988Z,2.53
2022-08-17T19:43:47.965Z,2.33
2022-08-17T19:46:56.369Z,2.15
2022-08-17T19:49:33.531Z,2.17
2022-08-17T19:52:20.507Z,2.40
2022-08-17T19:54:58.917Z,2.47
2022-08-17T19:57:49.681Z,2.30
2022-08-17T20:00:19.202Z,2.28
2022-08-17T20:06:08.489Z,2.13
2022-08-17T20:08:39.439Z,2.30
2022-08-17T20:11:21.212Z,2.10
2022-08-17T20:14:00.132Z,2.53
2022-08-17T20:16:27.582Z,2.20
2022-08-17T20:18:58.843Z,2.70
2022-08-17T20:21:50.291Z,2.45
2022-08-17T20:24:25.535Z,2.58
2022-08-17T20:27:09.007Z,2.70
2022-08-17T20:30:07.007Z,2.55
2022-08-17T20:32:48.887Z,2.47
2022-08-17T20:35:18.579Z,2.83
2022-08-17T20:38:41.563Z,2.70
2022-08-17T20:41:14.371Z,2.35
2022-08-17T20:44:02.319Z,2.70
2022-08-17T20:46:46.089Z,2.10
2022-08-17T20:49:24.530Z,3.08
2022-08-17T20:52:02.828Z,2.03
2022-08-17T20:54:54.089Z,2.17
2022-08-17T20:57:33.137Z,2.80
2022-08-17T21:00:19.012Z,2.15
2022-08-17T21:03:10.829Z,2.60
2022-08-17T21:06:00.708Z,2.40
2022-08-17T21:08:32.327Z,2.60
2022-08-17T21:11:00.980Z,2.45
2022-08-17T21:13:44.221Z,2.90
2022-08-17T21:16:25.862Z,3.05
2022-08-17T21:19:10.235Z,2.42
2022-08-17T21:21:47.189Z,2.30
2022-08-17T21:24:33.118Z,2.75
2022-08-17T21:27:00.186Z,2.17
2022-08-17T21:29:33.826Z,2.50
2022-08-17T21:32:05.303Z,2.60
2022-08-17T21:34:33.097Z,2.15
2022-08-17T21:37:24.388Z,2.50
2022-08-17T21:40:18.763Z,2.75
2022-08-17T21:42:49.363Z,2.75
2022-08-17T21:45:29.014Z,2.42
2022-08-17T21:48:27.469Z,2.53
2022-08-17T21:51:10.552Z,2.50
2022-08-17T21:53:47.124Z,2.53
2022-08-17T21:56:24.411Z,2.30
2022-08-17T21:59:26.102Z,2.50
2022-08-17T22:02:05.675Z,2.55
2022-08-17T22:04:38.971Z,2.50
2022-08-17T22:07:08.999Z,2.53
2022-08-17T22:09:48.997Z,2.40
2022-08-17T22:12:18.770Z,2.30
2022-08-17T22:14:56.818Z,2.50
2022-08-17T22:17:44.866Z,2.90
2022-08-17T22:20:16.836Z,2.90
2022-08-17T22:23:05.347Z,2.70
2022-08-17T22:25:38.173Z,2.60
2022-08-17T22:28:11.517Z,3.00
2022-08-17T22:30:43.889Z,2.90
2022-08-17T22:33:41.216Z,2.80
2022-08-17T22:36:46.273Z,2.20
2022-08-17T22:39:13.386Z,2.47
2022-08-17T22:41:43.058Z,3.03
2022-08-17T22:44:14.822Z,2.70
2022-08-17T22:46:57.126Z,2.80
2022-08-17T22:49:35.310Z,2.80
2022-08-17T22:52:17.391Z,2.53
2022-08-17T22:55:09.530Z,2.50
2022-08-17T22:57:56.489Z,2.90
2022-08-17T23:00:41.347Z,2.70
2022-08-17T23:03:11.486Z,2.88
2022-08-17T23:05:43.579Z,2.72
2022-08-17T23:08:12.677Z,2.47
2022-08-17T23:10:41.561Z,2.95
2022-08-17T23:13:12.002Z,2.60
2022-08-17T23:15:41.842Z,3.00
2022-08-17T23:18:08.655Z,2.80
2022-08-17T23:20:37.660Z,2.70
2022-08-17T23:23:06.857Z,2.55
2022-08-17T23:25:35.669Z,2.90
2022-08-17T23:28:04.924Z,2.85
2022-08-17T23:30:34.597Z,2.50
2022-08-17T23:33:07.766Z,3.13
2022-08-17T23:35:39.759Z,3.05
2022-08-17T23:38:12.441Z,3.05
2022-08-17T23:40:40.419Z,2.72
2022-08-17T23:43:23.382Z,2.90
2022-08-17T23:45:54.029Z,2.80
2022-08-17T23:48:28.432Z,2.60
2022-08-17T23:51:06.128Z,3.22
2022-08-17T23:53:34.910Z,3.10
2022-08-17T23:56:07.009Z,2.63
2022-08-17T23:58:38.657Z,2.95
